createdAt,value
2022-08-07T00:00:24.219Z,101140.50
2022-08-07T00:02:51.368Z,101139.88
2022-08-07T00:05:23.657Z,101150.75
2022-08-07T00:07:59.598Z,101155.44
2022-08-07T00:10:30.006Z,101156.88
2022-08-07T00:13:00.334Z,101160.16
2022-08-07T00:15:36.084Z,101156.88
2022-08-07T00:18:19.401Z,101162.47
2022-08-07T00:20:49.685Z,101158.59
2022-08-07T00:23:16.947Z,101154.88
2022-08-07T00:25:45.856Z,101145.06
2022-08-07T00:28:18.774Z,101143.09
2022-08-07T00:30:48.852Z,101151.34
2022-08-07T00:33:15.823Z,101138.63
2022-08-07T00:35:46.474Z,101155.75
2022-08-07T00:38:16.542Z,101158.06
2022-08-07T00:40:58.360Z,101155.94
2022-08-07T00:43:58.723Z,101158.91
2022-08-07T00:46:12.277Z,101153.78
2022-08-07T00:48:42.095Z,101155.78
2022-08-07T00:51:10.505Z,101157.19
2022-08-07T00:53:38.945Z,101167.50
2022-08-07T00:56:17.575Z,101160.66
2022-08-07T00:58:47.135Z,101160.91
2022-08-07T01:01:17.986Z,101165.88
2022-08-07T01:03:57.092Z,101167.72
2022-08-07T01:06:28.778Z,101169.03
2022-08-07T01:08:56.300Z,101176.44
2022-08-07T01:12:09.388Z,101177.44
2022-08-07T01:14:12.155Z,101174.56
2022-08-07T01:16:43.205Z,101176.88
2022-08-07T01:19:18.846Z,101180.56
2022-08-07T01:21:48.514Z,101181.97
2022-08-07T01:24:21.216Z,101186.19
2022-08-07T01:26:51.928Z,101184.22
2022-08-07T01:29:21.974Z,101182.63
2022-08-07T01:31:49.796Z,101182.13
2022-08-07T01:34:18.684Z,101181.41
2022-08-07T01:36:52.611Z,101182.53
2022-08-07T01:39:40.768Z,101187.53
2022-08-07T01:42:38.392Z,101189.81
2022-08-07T01:45:05.023Z,101192.69
2022-08-07T01:48:19.204Z,101191.16
2022-08-07T01:50:29.074Z,101184.44
2022-08-07T01:52:58.896Z,101198.56
2022-08-07T01:55:34.381Z,101190.44
2022-08-07T01:58:27.364Z,101194.63
2022-08-07T02:01:09.316Z,101200.28
2022-08-07T02:03:50.225Z,101195.75
2022-08-07T02:06:31.666Z,101198.09
2022-08-07T02:09:04.230Z,101198.84
2022-08-07T02:12:04.730Z,101196.59
2022-08-07T02:14:36.200Z,101193.19
2022-08-07T02:17:09.783Z,101188.31
2022-08-07T02:20:05.551Z,101185.47
2022-08-07T02:22:30.377Z,101196.69
2022-08-07T02:24:58.238Z,101198.13
2022-08-07T02:27:34.198Z,101185.59
2022-08-07T02:30:03.540Z,101192.00
2022-08-07T02:32:33.251Z,101189.97
2022-08-07T02:35:09.056Z,101188.66
2022-08-07T02:37:43.827Z,101186.97
2022-08-07T02:40:30.683Z,101192.94
2022-08-07T02:43:00.156Z,101191.94
2022-08-07T02:45:58.980Z,101186.38
2022-08-07T02:48:15.960Z,101182.59
2022-08-07T02:50:46.022Z,101175.56
2022-08-07T02:53:21.568Z,101185.22
2022-08-07T02:56:03.915Z,101177.56
2022-08-07T02:58:34.188Z,101181.66
2022-08-07T03:01:03.092Z,101167.19
2022-08-07T03:03:49.308Z,101174.94
2022-08-07T03:06:25.646Z,101159.19
2022-08-07T03:09:00.753Z,101167.78
2022-08-07T03:11:28.529Z,101166.97
2022-08-07T03:14:01.626Z,101174.69
2022-08-07T03:16:30.826Z,101181.84
2022-08-07T03:18:59.248Z,101168.28
2022-08-07T03:21:27.493Z,101161.72
2022-08-07T03:24:20.499Z,101162.88
2022-08-07T03:26:58.492Z,101164.00
2022-08-07T03:29:36.792Z,101172.78
2022-08-07T03:32:08.292Z,101171.31
2022-08-07T03:34:39.148Z,101171.94
2022-08-07T03:37:11.874Z,101167.78
2022-08-07T03:39:59.403Z,101181.72
2022-08-07T03:42:27.674Z,101181.91
2022-08-07T03:44:58.018Z,101171.63
2022-08-07T03:47:26.255Z,101183.28
2022-08-07T03:49:56.682Z,101191.94
2022-08-07T03:52:27.443Z,101182.97
2022-08-07T03:55:06.140Z,101188.00
2022-08-07T03:58:34.531Z,101183.03
2022-08-07T04:00:30.627Z,101186.03
2022-08-07T04:03:03.998Z,101192.34
2022-08-07T04:05:39.865Z,101187.91
2022-08-07T04:08:16.285Z,101189.31
2022-08-07T04:10:54.687Z,101189.84
2022-08-07T04:14:09.215Z,101195.59
2022-08-07T04:16:31.122Z,101194.44
2022-08-07T04:19:01.804Z,101194.06
2022-08-07T04:21:33.485Z,101194.44
2022-08-07T04:24:07.838Z,101196.31
2022-08-07T04:26:34.981Z,101186.59
2022-08-07T04:29:03.032Z,101190.25
2022-08-07T04:31:39.144Z,101195.13
2022-08-07T04:34:23.928Z,101198.47
2022-08-07T04:36:54.475Z,101195.66
2022-08-07T04:39:25.825Z,101205.50
2022-08-07T04:41:52.847Z,101205.50
2022-08-07T04:44:20.536Z,101214.63
2022-08-07T04:47:09.587Z,101211.19
2022-08-07T04:49:47.616Z,101209.78
2022-08-07T04:52:46.668Z,101210.25
2022-08-07T04:58:13.160Z,101210.53
2022-08-07T04:59:15.817Z,101219.91
2022-08-07T05:01:50.569Z,101230.69
2022-08-07T05:04:47.210Z,101221.13
2022-08-07T05:07:30.373Z,101225.41
2022-08-07T05:10:23.265Z,101232.00
2022-08-07T05:12:58.597Z,101231.34
2022-08-07T05:15:39.104Z,101233.72
2022-08-07T05:18:13.497Z,101235.75
2022-08-07T05:20:48.107Z,101238.28
2022-08-07T05:23:23.197Z,101238.41
2022-08-07T05:26:12.975Z,101241.19
2022-08-07T05:28:48.534Z,101238.59
2022-08-07T05:31:19.052Z,101245.00
2022-08-07T05:33:51.292Z,101247.41
2022-08-07T05:36:35.392Z,101252.06
2022-08-07T05:40:04.967Z,101260.50
2022-08-07T05:42:01.512Z,101258.56
2022-08-07T05:44:33.690Z,101255.81
2022-08-07T05:47:02.038Z,101264.47
2022-08-07T05:49:48.280Z,101275.78
2022-08-07T05:52:20.080Z,101273.53
2022-08-07T05:54:55.337Z,101262.47
2022-08-07T05:57:26.749Z,101274.19
2022-08-07T05:59:59.068Z,101274.13
2022-08-07T06:02:30.490Z,101273.13
2022-08-07T06:05:03.520Z,101279.25
2022-08-07T06:08:29.732Z,101268.56
2022-08-07T06:10:18.790Z,101271.06
2022-08-07T06:12:47.540Z,101270.34
2022-08-07T06:15:16.428Z,101268.56
2022-08-07T06:17:53.339Z,101274.13
2022-08-07T06:20:25.436Z,101274.47
2022-08-07T06:23:01.913Z,101269.78
2022-08-07T06:25:54.848Z,101275.06
2022-08-07T06:28:27.463Z,101274.34
2022-08-07T06:30:54.737Z,101274.28
2022-08-07T06:33:22.697Z,101277.63
2022-08-07T06:36:13.194Z,101286.41
2022-08-07T06:38:36.532Z,101290.28
2022-08-07T06:41:13.190Z,101292.06
2022-08-07T06:43:46.072Z,101291.19
2022-08-07T06:46:14.618Z,101294.75
2022-08-07T06:48:47.323Z,101299.09
2022-08-07T06:51:31.190Z,101291.84
2022-08-07T06:55:29.493Z,101308.59
2022-08-07T06:56:52.071Z,101313.16
2022-08-07T07:00:11.759Z,101317.66
2022-08-07T07:02:48.488Z,101317.78
2022-08-07T07:05:04.084Z,101329.06
2022-08-07T07:07:58.552Z,101330.97
2022-08-07T07:10:28.293Z,101322.66
2022-08-07T07:13:00.138Z,101324.25
2022-08-07T07:15:36.007Z,101326.84
2022-08-07T07:18:14.174Z,101332.47
2022-08-07T07:20:45.697Z,101310.69
2022-08-07T07:24:06.106Z,101316.84
2022-08-07T07:26:35.084Z,101310.84
2022-08-07T07:29:56.712Z,101304.50
2022-08-07T07:31:47.983Z,101307.22
2022-08-07T07:34:22.370Z,101306.94
2022-08-07T07:37:14.520Z,101307.41
2022-08-07T07:39:54.679Z,101310.63
2022-08-07T07:42:32.546Z,101303.47
2022-08-07T07:45:05.720Z,101296.72
2022-08-07T07:47:52.020Z,101290.47
2022-08-07T07:50:34.083Z,101300.31
2022-08-07T07:53:20.401Z,101291.50
2022-08-07T07:55:54.744Z,101294.53
2022-08-07T07:58:28.741Z,101289.03
2022-08-07T08:00:58.397Z,101296.41
2022-08-07T08:04:06.404Z,101289.66
2022-08-07T08:06:16.511Z,101276.84
2022-08-07T08:08:44.441Z,101267.88
2022-08-07T08:11:17.574Z,101271.78
2022-08-07T08:14:02.982Z,101264.03
2022-08-07T08:16:35.481Z,101262.78
2022-08-07T08:19:17.271Z,101248.59
2022-08-07T08:22:11.840Z,101238.78
2022-08-07T08:25:18.359Z,101235.53
2022-08-07T08:27:56.406Z,101232.41
2022-08-07T08:30:28.739Z,101248.66
2022-08-07T08:33:00.093Z,101252.78
2022-08-07T08:35:39.135Z,101255.19
2022-08-07T08:38:16.477Z,101260.34
2022-08-07T08:40:49.774Z,101261.78
2022-08-07T08:43:42.617Z,101259.22
2022-08-07T08:46:44.933Z,101271.44
2022-08-07T08:49:33.618Z,101255.94
2022-08-07T08:52:30.307Z,101245.00
2022-08-07T08:55:08.872Z,101252.97
2022-08-07T08:57:49.500Z,101254.78
2022-08-07T09:00:17.478Z,101246.50
2022-08-07T09:02:57.652Z,101239.44
2022-08-07T09:05:58.618Z,101248.16
2022-08-07T09:08:47.562Z,101244.00
2022-08-07T09:11:50.673Z,101241.88
2022-08-07T09:16:21.701Z,101239.16
2022-08-07T09:18:22.540Z,101245.13
2022-08-07T09:21:58.277Z,101249.44
2022-08-07T09:24:55.522Z,101231.88
2022-08-07T09:28:00.537Z,101235.88
2022-08-07T09:31:27.110Z,101231.88
2022-08-07T09:34:10.949Z,101240.41
2022-08-07T09:37:04.947Z,101226.00
2022-08-07T09:39:53.800Z,101230.16
2022-08-07T09:42:33.671Z,101229.03
2022-08-07T09:47:25.465Z,101221.03
2022-08-07T09:48:08.813Z,101217.84
2022-08-07T09:51:26.056Z,101222.00
2022-08-07T09:54:02.298Z,101214.56
2022-08-07T09:56:49.918Z,101222.38
2022-08-07T09:59:35.821Z,101220.81
2022-08-07T10:02:41.366Z,101210.94
2022-08-07T10:06:00.725Z,101207.75
2022-08-07T10:08:19.369Z,101202.97
2022-08-07T10:12:01.168Z,101203.84
2022-08-07T10:14:36.757Z,101203.19
2022-08-07T10:18:00.823Z,101202.28
2022-08-07T10:20:44.421Z,101190.31
2022-08-07T10:24:06.551Z,101193.94
2022-08-07T10:26:54.060Z,101206.97
2022-08-07T10:29:45.716Z,101210.56
2022-08-07T10:32:52.252Z,101208.59
2022-08-07T10:35:55.206Z,101206.91
2022-08-07T10:39:10.896Z,101210.75
2022-08-07T10:41:51.894Z,101197.53
2022-08-07T10:44:39.628Z,101198.16
2022-08-07T10:47:54.119Z,101200.56
2022-08-07T10:50:25.660Z,101209.63
2022-08-07T10:53:09.013Z,101209.78
2022-08-07T10:55:44.123Z,101211.47
2022-08-07T10:58:33.069Z,101197.59
2022-08-07T11:01:51.707Z,101208.78
2022-08-07T11:04:50.552Z,101217.72
2022-08-07T11:07:58.319Z,101216.00
2022-08-07T11:10:29.492Z,101217.03
2022-08-07T11:13:06.294Z,101214.97
2022-08-07T11:15:54.251Z,101213.06
2022-08-07T11:18:39.348Z,101213.56
2022-08-07T11:21:32.471Z,101205.59
2022-08-07T11:24:12.159Z,101205.41
2022-08-07T11:26:55.835Z,101199.56
2022-08-07T11:29:40.859Z,101206.72
2022-08-07T11:32:33.508Z,101202.44
2022-08-07T11:35:09.365Z,101201.69
2022-08-07T11:37:58.429Z,101200.38
2022-08-07T11:40:49.738Z,101202.56
2022-08-07T11:43:41.267Z,101193.78
2022-08-07T11:46:31.089Z,101185.22
2022-08-07T11:49:51.345Z,101172.88
2022-08-07T11:52:07.800Z,101179.09
2022-08-07T11:54:54.905Z,101174.69
2022-08-07T11:58:00.769Z,101169.38
2022-08-07T12:00:37.031Z,101150.28
2022-08-07T12:03:41.681Z,101147.91
2022-08-07T12:06:51.674Z,101154.91
2022-08-07T12:10:05.823Z,101156.78
2022-08-07T12:12:57.180Z,101146.84
2022-08-07T12:15:35.831Z,101139.16
2022-08-07T12:18:29.899Z,101132.94
2022-08-07T12:21:00.078Z,101127.50
2022-08-07T12:24:07.691Z,101128.88
2022-08-07T12:26:49.631Z,101124.09
2022-08-07T12:29:37.729Z,101124.56
2022-08-07T12:32:23.124Z,101119.47
2022-08-07T12:34:53.412Z,101109.22
2022-08-07T12:37:28.625Z,101106.63
2022-08-07T12:40:44.891Z,101112.28
2022-08-07T12:43:09.486Z,101112.06
2022-08-07T12:45:50.262Z,101104.66
2022-08-07T12:48:56.633Z,101092.00
2022-08-07T12:51:33.436Z,101079.56
2022-08-07T12:54:38.474Z,101082.84
2022-08-07T12:57:10.816Z,101084.84
2022-08-07T12:59:55.559Z,101082.56
2022-08-07T13:03:01.346Z,101082.22
2022-08-07T13:06:03.743Z,101090.38
2022-08-07T13:08:29.438Z,101089.13
2022-08-07T13:11:23.816Z,101081.47
2022-08-07T13:13:50.560Z,101082.31
2022-08-07T13:17:02.544Z,101077.50
2022-08-07T13:19:50.814Z,101077.69
2022-08-07T13:22:31.189Z,101086.44
2022-08-07T13:25:41.690Z,101088.97
2022-08-07T13:28:24.107Z,101092.41
2022-08-07T13:31:02.143Z,101099.53
2022-08-07T13:34:34.290Z,101111.13
2022-08-07T13:36:57.780Z,101120.31
2022-08-07T13:40:35.840Z,101121.47
2022-08-07T13:42:39.838Z,101103.81
2022-08-07T13:46:06.145Z,101092.09
2022-08-07T13:48:08.337Z,101073.56
2022-08-07T13:50:59.933Z,101075.41
2022-08-07T13:53:59.238Z,101061.00
2022-08-07T13:56:36.084Z,101065.09
2022-08-07T13:59:21.576Z,101070.69
2022-08-07T14:02:05.333Z,101076.97
2022-08-07T14:04:36.317Z,101073.53
2022-08-07T14:07:10.115Z,101083.38
2022-08-07T14:10:03.043Z,101087.56
2022-08-07T14:12:41.486Z,101093.06
2022-08-07T14:15:18.534Z,101088.94
2022-08-07T14:18:23.991Z,101090.72
2022-08-07T14:20:42.030Z,101074.13
2022-08-07T14:23:59.232Z,101069.47
2022-08-07T14:26:30.613Z,101071.84
2022-08-07T14:29:08.868Z,101057.88
2022-08-07T14:31:56.548Z,101054.44
2022-08-07T14:34:30.471Z,101057.59
2022-08-07T14:40:15.935Z,101060.19
2022-08-07T14:43:55.665Z,101060.50
2022-08-07T14:48:21.900Z,101071.28
2022-08-07T14:50:57.371Z,101063.00
2022-08-07T14:54:08.640Z,101056.44
2022-08-07T14:59:14.013Z,101036.44
2022-08-07T15:02:32.024Z,101017.09
2022-08-07T15:05:01.645Z,101010.22
2022-08-07T15:07:47.158Z,100997.81
2022-08-07T15:13:22.417Z,100989.88
2022-08-07T15:15:57.734Z,100994.75
2022-08-07T15:18:41.944Z,101008.13
2022-08-07T15:25:12.824Z,101025.69
2022-08-07T15:27:03.775Z,101035.19
2022-08-07T15:32:38.907Z,101035.91
2022-08-07T15:35:12.588Z,101029.25
2022-08-07T15:38:04.273Z,101044.91
2022-08-07T15:40:34.539Z,101045.09
2022-08-07T15:43:11.167Z,101055.72
2022-08-07T15:46:04.540Z,101061.16
2022-08-07T15:49:13.258Z,101066.09
2022-08-07T15:54:34.278Z,101063.63
2022-08-07T15:57:03.222Z,101065.16
2022-08-07T15:59:39.982Z,101062.66
2022-08-07T16:02:23.994Z,101063.09
2022-08-07T16:04:58.094Z,101057.66
2022-08-07T16:08:30.421Z,101048.06
2022-08-07T16:10:27.245Z,101046.66
2022-08-07T16:13:39.424Z,101037.97
2022-08-07T16:16:48.023Z,101035.56
2022-08-07T16:19:19.228Z,101027.25
2022-08-07T16:22:38.207Z,101008.44
2022-08-07T16:25:22.746Z,101008.81
2022-08-07T16:30:05.457Z,100994.13
2022-08-07T16:31:50.727Z,100988.75
2022-08-07T16:34:18.337Z,100987.34
2022-08-07T16:38:06.231Z,100990.31
2022-08-07T16:40:28.392Z,100981.47
2022-08-07T16:43:18.401Z,100990.16
2022-08-07T16:46:33.467Z,100973.41
2022-08-07T16:50:20.855Z,100971.09
2022-08-07T16:52:49.182Z,100974.63
2022-08-07T16:55:47.298Z,100963.63
2022-08-07T16:59:11.077Z,100957.03
2022-08-07T17:01:41.637Z,100961.06
2022-08-07T17:04:24.683Z,100957.44
2022-08-07T17:07:06.872Z,100954.50
2022-08-07T17:10:08.441Z,100954.31
2022-08-07T17:13:03.451Z,100961.00
2022-08-07T17:15:43.797Z,100970.44
2022-08-07T17:18:24.072Z,100962.94
2022-08-07T17:20:54.679Z,100973.28
2022-08-07T17:23:43.034Z,100970.91
2022-08-07T17:26:51.738Z,100969.34
2022-08-07T17:30:15.230Z,100966.00
2022-08-07T17:32:30.968Z,100961.91
2022-08-07T17:35:51.679Z,100960.59
2022-08-07T17:38:33.230Z,100965.97
2022-08-07T17:42:01.943Z,100960.13
2022-08-07T17:44:06.614Z,100967.25
2022-08-07T17:46:53.435Z,100963.69
2022-08-07T17:49:44.395Z,100965.97
2022-08-07T17:52:35.840Z,100965.88
2022-08-07T17:55:59.913Z,100967.41
2022-08-07T17:58:46.490Z,100973.69
2022-08-07T18:01:22.028Z,100971.94
2022-08-07T18:04:24.542Z,100977.31
2022-08-07T18:07:23.875Z,100977.69
2022-08-07T18:10:10.228Z,100985.25
2022-08-07T18:13:20.692Z,100976.31
2022-08-07T18:16:05.649Z,100976.88
2022-08-07T18:21:03.410Z,100987.13
2022-08-07T18:22:02.306Z,100986.28
2022-08-07T18:24:45.109Z,100988.72
2022-08-07T18:27:56.906Z,100986.75
2022-08-07T18:30:31.518Z,100988.06
2022-08-07T18:33:17.853Z,100990.97
2022-08-07T18:35:51.565Z,100988.94
2022-08-07T18:38:58.811Z,100986.34
2022-08-07T18:41:55.732Z,100996.69
2022-08-07T18:44:27.130Z,101009.31
2022-08-07T18:47:22.949Z,101014.94
2022-08-07T18:50:39.465Z,101018.66
2022-08-07T18:53:39.264Z,101035.28
2022-08-07T18:56:15.812Z,101040.16
2022-08-07T18:59:03.381Z,101047.72
2022-08-07T19:02:19.755Z,101045.34
2022-08-07T19:04:56.130Z,101054.34
2022-08-07T19:07:51.726Z,101063.44
2022-08-07T19:10:49.530Z,101073.56
2022-08-07T19:13:28.923Z,101070.31
2022-08-07T19:17:04.141Z,101079.13
2022-08-07T19:19:31.548Z,101086.13
2022-08-07T19:22:11.252Z,101083.25
2022-08-07T19:24:46.248Z,101094.25
2022-08-07T19:28:57.108Z,101084.56
2022-08-07T19:31:02.941Z,101082.28
2022-08-07T19:33:10.152Z,101077.00
2022-08-07T19:35:46.239Z,101083.13
2022-08-07T19:38:20.452Z,101089.09
2022-08-07T19:40:51.489Z,101092.81
2022-08-07T19:43:48.757Z,101090.09
2022-08-07T19:46:26.752Z,101099.63
2022-08-07T19:49:06.915Z,101100.00
2022-08-07T19:51:52.812Z,101102.16
2022-08-07T19:54:43.948Z,101108.97
2022-08-07T19:58:00.565Z,101109.41
2022-08-07T20:00:11.824Z,101104.19
2022-08-07T20:03:34.720Z,101113.28
2022-08-07T20:06:02.490Z,101110.34
2022-08-07T20:08:48.760Z,101109.03
2022-08-07T20:11:34.260Z,101101.75
2022-08-07T20:14:20.611Z,101098.16
2022-08-07T20:16:48.393Z,101092.75
2022-08-07T20:19:25.137Z,101093.03
2022-08-07T20:21:57.088Z,101089.34
2022-08-07T20:24:32.806Z,101088.47
2022-08-07T20:27:02.787Z,101079.91
2022-08-07T20:29:49.520Z,101083.63
2022-08-07T20:32:40.018Z,101079.22
2022-08-07T20:35:12.530Z,101082.59
2022-08-07T20:37:58.395Z,101082.22
2022-08-07T20:40:32.926Z,101088.19
2022-08-07T20:43:02.655Z,101089.59
2022-08-07T20:46:25.795Z,101084.91
2022-08-07T20:48:29.761Z,101098.44
2022-08-07T20:50:59.965Z,101095.72
2022-08-07T20:54:03.534Z,101091.72
2022-08-07T20:56:16.751Z,101101.53
2022-08-07T20:58:56.035Z,101102.81
2022-08-07T21:01:29.832Z,101105.63
2022-08-07T21:04:22.676Z,101085.00
2022-08-07T21:06:55.310Z,101075.06
2022-08-07T21:09:51.874Z,101085.41
2022-08-07T21:12:26.134Z,101082.97
2022-08-07T21:14:58.410Z,101084.38
2022-08-07T21:18:03.949Z,101086.91
2022-08-07T21:20:26.644Z,101089.59
2022-08-07T21:22:59.361Z,101087.69
2022-08-07T21:26:05.869Z,101095.81
2022-08-07T21:28:48.406Z,101096.19
2022-08-07T21:32:42.673Z,101088.59
2022-08-07T21:34:34.328Z,101101.34
2022-08-07T21:37:57.198Z,101100.78
2022-08-07T21:40:41.894Z,101104.19
2022-08-07T21:43:24.829Z,101101.34
2022-08-07T21:46:25.159Z,101115.53
2022-08-07T21:49:25.688Z,101111.41
2022-08-07T21:52:11.428Z,101118.50
2022-08-07T21:54:56.174Z,101118.19
2022-08-07T21:58:03.763Z,101122.00
2022-08-07T22:00:32.415Z,101118.25
2022-08-07T22:02:59.246Z,101123.84
2022-08-07T22:05:45.942Z,101135.38
2022-08-07T22:08:19.714Z,101133.00
2022-08-07T22:10:50.372Z,101130.69
2022-08-07T22:13:24.479Z,101134.59
2022-08-07T22:16:43.137Z,101124.81
2022-08-07T22:19:23.694Z,101129.84
2022-08-07T22:22:27.431Z,101123.63
2022-08-07T22:25:03.057Z,101123.63
2022-08-07T22:28:08.293Z,101130.03
2022-08-07T22:30:31.805Z,101127.22
2022-08-07T22:33:15.346Z,101120.75
2022-08-07T22:35:54.771Z,101120.66
2022-08-07T22:38:47.849Z,101115.63
2022-08-07T22:41:20.864Z,101119.31
2022-08-07T22:44:01.622Z,101128.19
2022-08-07T22:47:03.751Z,101120.34
2022-08-07T22:49:54.126Z,101130.03
2022-08-07T22:52:37.388Z,101134.50
2022-08-07T22:55:29.710Z,101135.53
2022-08-07T22:58:21.735Z,101137.50
2022-08-07T23:01:05.518Z,101129.94
2022-08-07T23:03:58.291Z,101130.41
2022-08-07T23:07:01.375Z,101132.66
2022-08-07T23:10:04.206Z,101139.31
2022-08-07T23:13:48.819Z,101136.63
2022-08-07T23:17:02.798Z,101146.66
2022-08-07T23:20:03.213Z,101156.53
2022-08-07T23:23:02.809Z,101145.97
2022-08-07T23:25:37.814Z,101152.16
2022-08-07T23:28:21.845Z,101156.59
2022-08-07T23:31:06.744Z,101153.44
2022-08-07T23:34:34.453Z,101166.75
2022-08-07T23:37:19.003Z,101163.25
2022-08-07T23:40:36.286Z,101161.09
2022-08-07T23:43:37.681Z,101149.53
2022-08-07T23:46:44.027Z,101147.03
2022-08-07T23:49:51.023Z,101152.50
2022-08-07T23:53:01.713Z,101153.06
2022-08-07T23:55:55.589Z,101149.50
2022-08-07T23:58:38.715Z,101159.75
